Time;durP1;ratioP1;P1;durP2;ratioP2;P2;SDS_P1;SDS_P2;PMS_P1;PMS_P2;Temp;Humidity;BMP_temperature;BMP_pressure;BME280_temperature;BME280_humidity;BME280_pressure;Samples;Min_cycle;Max_cycle;Signal;HPM_P1;HPM_P2
2023/03/21 00:02:15;;;;;;;0.30;0.10;;;;;;;;;;5021443;28;20508;-94
2023/03/21 00:04:44;;;;;;;0.00;0.00;;;;;;;;;;5024439;28;20046;-94
2023/03/21 00:07:10;;;;;;;0.00;0.00;;;;;;;;;;5023829;28;20060;-93
2023/03/21 00:09:36;;;;;;;0.00;0.00;;;;;;;;;;5024002;28;20358;-95
2023/03/21 00:12:06;;;;;;;0.00;0.00;;;;;;;;;;5020118;28;20473;-93
2023/03/21 00:14:32;;;;;;;0.00;0.00;;;;;;;;;;5003450;28;20038;-93
2023/03/21 00:16:58;;;;;;;0.00;0.00;;;;;;;;;;5020644;28;20091;-93
2023/03/21 00:19:25;;;;;;;0.00;0.00;;;;;;;;;;5021795;28;20361;-95
2023/03/21 00:21:54;;;;;;;0.00;0.00;;;;;;;;;;5001409;28;20085;-94
2023/03/21 00:24:21;;;;;;;0.00;0.00;;;;;;;;;;4998763;28;20478;-93
2023/03/21 00:26:48;;;;;;;0.25;0.10;;;;;;;;;;4999930;28;20084;-91
2023/03/21 00:29:16;;;;;;;0.47;0.15;;;;;;;;;;5016206;28;20481;-94
2023/03/21 00:31:42;;;;;;;0.00;0.00;;;;;;;;;;5018883;28;20045;-93
2023/03/21 00:34:08;;;;;;;0.00;0.00;;;;;;;;;;5020486;28;20042;-94
2023/03/21 00:36:34;;;;;;;0.00;0.00;;;;;;;;;;5015696;28;20061;-93
2023/03/21 00:39:02;;;;;;;0.00;0.00;;;;;;;;;;5001197;28;20049;-93
2023/03/21 00:41:28;;;;;;;0.00;0.00;;;;;;;;;;5020738;28;20042;-94
2023/03/21 00:43:54;;;;;;;0.00;0.00;;;;;;;;;;5024828;28;20394;-94
2023/03/21 00:46:20;;;;;;;0.08;0.00;;;;;;;;;;5022707;28;20484;-95
2023/03/21 00:48:48;;;;;;;0.00;0.00;;;;;;;;;;5015573;28;20485;-94
2023/03/21 00:51:27;;;;;;;0.00;0.00;;;;;;;;;;5018819;28;20050;-94
2023/03/21 00:53:55;;;;;;;0.10;0.00;;;;;;;;;;5019748;28;20069;-92
2023/03/21 00:56:21;;;;;;;0.00;0.00;;;;;;;;;;5002336;28;20038;-92
2023/03/21 00:58:51;;;;;;;0.00;0.00;;;;;;;;;;5018659;28;20549;-94
2023/03/21 01:01:19;;;;;;;0.00;0.00;;;;;;;;;;5020454;28;20120;-94
2023/03/21 01:03:49;;;;;;;0.60;0.60;;;;;;;;;;5019298;28;20038;-95
2023/03/21 01:06:19;;;;;;;0.00;0.00;;;;;;;;;;5015193;28;20084;-93
2023/03/21 01:08:45;;;;;;;0.00;0.00;;;;;;;;;;5000108;28;20050;-92
2023/03/21 01:11:13;;;;;;;0.17;0.17;;;;;;;;;;4998683;28;20444;-93
2023/03/21 01:13:44;;;;;;;0.13;0.05;;;;;;;;;;5005547;28;20041;-93
2023/03/21 01:16:14;;;;;;;0.65;0.22;;;;;;;;;;5021206;28;20042;-94
2023/03/21 01:18:44;;;;;;;0.00;0.00;;;;;;;;;;5026949;28;20036;-90
2023/03/21 01:21:11;;;;;;;0.00;0.00;;;;;;;;;;5037599;28;20030;-91
2023/03/21 01:23:38;;;;;;;0.47;0.30;;;;;;;;;;5108100;23;20063;-89
2023/03/21 01:26:05;;;;;;;0.50;0.20;;;;;;;;;;5097578;28;20037;-89
2023/03/21 01:28:31;;;;;;;0.00;0.00;;;;;;;;;;5080590;28;20048;-89
2023/03/21 01:31:00;;;;;;;0.00;0.00;;;;;;;;;;5097632;28;20028;-91
2023/03/21 01:33:27;;;;;;;0.17;0.10;;;;;;;;;;5080584;28;20047;-89
2023/03/21 01:35:53;;;;;;;0.00;0.00;;;;;;;;;;5097588;28;20036;-89
2023/03/21 01:38:19;;;;;;;0.20;0.10;;;;;;;;;;5080643;28;20028;-89
2023/03/21 01:40:47;;;;;;;0.00;0.00;;;;;;;;;;5097468;28;20052;-88
2023/03/21 01:43:29;;;;;;;0.00;0.00;;;;;;;;;;5097254;28;20057;-88
2023/03/21 01:46:19;;;;;;;0.10;0.10;;;;;;;;;;5080661;28;20108;-89
2023/03/21 01:48:54;;;;;;;0.00;0.00;;;;;;;;;;5099276;28;20164;-89
2023/03/21 01:51:24;;;;;;;0.00;0.00;;;;;;;;;;5084956;28;20087;-89
2023/03/21 01:53:50;;;;;;;0.50;0.28;;;;;;;;;;5101245;28;20088;-89
2023/03/21 01:56:16;;;;;;;0.05;0.00;;;;;;;;;;5101329;28;20094;-89
2023/03/21 01:58:43;;;;;;;0.00;0.00;;;;;;;;;;5101065;28;20025;-89
2023/03/21 02:09:19;;;;;;;0.00;0.00;;;;;;;;;;5673626;22;20047;-91
2023/03/21 02:11:46;;;;;;;0.00;0.00;;;;;;;;;;5041168;28;20130;-93
2023/03/21 02:14:15;;;;;;;0.90;0.10;;;;;;;;;;5076150;28;20036;-92
2023/03/21 02:16:57;;;;;;;0.10;0.10;;;;;;;;;;5073248;28;20047;-92
2023/03/21 02:19:23;;;;;;;0.00;0.00;;;;;;;;;;5070387;28;20056;-94
2023/03/21 02:22:10;;;;;;;0.00;0.00;;;;;;;;;;5070743;28;20037;-94
2023/03/21 02:25:03;;;;;;;0.00;0.00;;;;;;;;;;5072356;28;20049;-94
2023/03/21 02:27:32;;;;;;;0.00;0.00;;;;;;;;;;5054775;28;20067;-94
2023/03/21 02:30:24;;;;;;;0.10;0.10;;;;;;;;;;5069176;28;20128;-94
2023/03/21 02:32:59;;;;;;;0.00;0.00;;;;;;;;;;5068956;28;20096;-92
2023/03/21 02:35:47;;;;;;;0.00;0.00;;;;;;;;;;5069380;28;20041;-93
2023/03/21 02:38:32;;;;;;;0.00;0.00;;;;;;;;;;5067603;28;20139;-94
2023/03/21 02:41:04;;;;;;;0.00;0.00;;;;;;;;;;5045717;28;20076;-94
2023/03/21 02:43:42;;;;;;;0.00;0.00;;;;;;;;;;5065213;28;20085;-95
2023/03/21 02:46:26;;;;;;;0.00;0.00;;;;;;;;;;5063857;28;20159;-94
2023/03/21 02:49:24;;;;;;;0.00;0.00;;;;;;;;;;5053512;28;20044;-92
2023/03/21 02:51:50;;;;;;;0.00;0.00;;;;;;;;;;5053761;28;20049;-93
2023/03/21 02:54:47;;;;;;;;;;;;;;;;;;;;;
2023/03/21 02:57:13;;;;;;;;;;;;;;;;;;5075751;28;20040;-92
2023/03/21 02:59:42;;;;;;;0.00;0.00;;;;;;;;;;5072595;28;20019;-94
2023/03/21 03:02:11;;;;;;;0.00;0.00;;;;;;;;;;5075155;28;20051;-93
2023/03/21 03:04:40;;;;;;;0.00;0.00;;;;;;;;;;5077137;28;20037;-93
2023/03/21 03:07:25;;;;;;;0.03;0.03;;;;;;;;;;5075259;28;20071;-93
2023/03/21 03:10:01;;;;;;;0.00;0.00;;;;;;;;;;5071724;28;20048;-94
2023/03/21 03:12:50;;;;;;;0.35;0.10;;;;;;;;;;5074045;28;20067;-94
2023/03/21 03:18:28;;;;;;;0.00;0.00;;;;;;;;;;5699086;22;20084;-91
2023/03/21 03:21:01;;;;;;;0.75;0.32;;;;;;;;;;4973089;29;20102;-93
2023/03/21 03:23:37;;;;;;;0.00;0.00;;;;;;;;;;4998521;28;20476;-94
2023/03/21 03:26:09;;;;;;;0.00;0.00;;;;;;;;;;4998798;28;20058;-93
2023/03/21 03:28:38;;;;;;;0.22;0.20;;;;;;;;;;5017032;28;20046;-93
2023/03/21 03:31:10;;;;;;;0.30;0.10;;;;;;;;;;5012806;28;20038;-92
2023/03/21 03:33:45;;;;;;;0.00;0.00;;;;;;;;;;5005566;28;20069;-94
2023/03/21 03:36:17;;;;;;;0.00;0.00;;;;;;;;;;4990244;28;20069;-95
2023/03/21 03:38:44;;;;;;;0.00;0.00;;;;;;;;;;4991262;28;20054;-94
2023/03/21 03:41:17;;;;;;;0.00;0.00;;;;;;;;;;5022251;28;20057;-93
2023/03/21 03:44:03;;;;;;;0.28;0.22;;;;;;;;;;4989192;28;20045;-95
2023/03/21 03:46:50;;;;;;;;;;;;;;;;;;;;;
2023/03/21 03:49:26;;;;;;;0.00;0.00;;;;;;;;;;5011456;28;20088;-92
2023/03/21 03:52:05;;;;;;;0.00;0.00;;;;;;;;;;5010981;28;20069;-95
2023/03/21 03:54:36;;;;;;;0.00;0.00;;;;;;;;;;5012121;28;20049;-95
2023/03/21 03:57:03;;;;;;;0.00;0.00;;;;;;;;;;5009580;28;20037;-95
2023/03/21 03:59:29;;;;;;;0.00;0.00;;;;;;;;;;5008780;28;20119;-92
2023/03/21 04:01:55;;;;;;;0.10;0.03;;;;;;;;;;5008523;28;20046;-94
2023/03/21 04:04:23;;;;;;;0.00;0.00;;;;;;;;;;5001547;28;20042;-93
2023/03/21 04:06:57;;;;;;;0.65;0.65;;;;;;;;;;5021846;28;20042;-92
2023/03/21 04:09:24;;;;;;;0.00;0.00;;;;;;;;;;5008939;28;20038;-94
2023/03/21 04:11:50;;;;;;;1.17;0.15;;;;;;;;;;5004762;28;20045;-92
2023/03/21 04:14:16;;;;;;;0.00;0.00;;;;;;;;;;4993396;28;20046;-95
2023/03/21 04:16:45;;;;;;;0.00;0.00;;;;;;;;;;4992006;28;20501;-93
2023/03/21 04:19:11;;;;;;;0.00;0.00;;;;;;;;;;5025338;28;20053;-92
2023/03/21 04:21:38;;;;;;;0.00;0.00;;;;;;;;;;5007240;28;20057;-93
2023/03/21 04:24:06;;;;;;;0.00;0.00;;;;;;;;;;5006284;28;20034;-93
2023/03/21 04:26:35;;;;;;;0.00;0.00;;;;;;;;;;5006842;28;20061;-93
2023/03/21 04:29:11;;;;;;;0.00;0.00;;;;;;;;;;5008607;28;20550;-93
2023/03/21 04:31:40;;;;;;;0.00;0.00;;;;;;;;;;5027573;28;20049;-95
2023/03/21 04:34:12;;;;;;;0.00;0.00;;;;;;;;;;5013243;28;20045;-94
2023/03/21 04:36:48;;;;;;;0.00;0.00;;;;;;;;;;5030933;28;20065;-93
2023/03/21 04:39:14;;;;;;;0.00;0.00;;;;;;;;;;5013708;28;20053;-93
2023/03/21 04:41:48;;;;;;;0.00;0.00;;;;;;;;;;5000176;28;20046;-92
2023/03/21 04:44:15;;;;;;;0.00;0.00;;;;;;;;;;5012300;28;20044;-94
2023/03/21 04:46:50;;;;;;;0.00;0.00;;;;;;;;;;4997333;28;20501;-92
2023/03/21 04:49:17;;;;;;;0.00;0.00;;;;;;;;;;5027108;28;20046;-93
2023/03/21 04:51:44;;;;;;;0.00;0.00;;;;;;;;;;4988227;28;20335;-93
2023/03/21 04:54:12;;;;;;;0.00;0.00;;;;;;;;;;5001658;28;20042;-94
2023/03/21 04:56:41;;;;;;;0.00;0.00;;;;;;;;;;5005217;28;20103;-93
2023/03/21 04:59:13;;;;;;;0.05;0.05;;;;;;;;;;5006542;28;20099;-95
2023/03/21 05:01:40;;;;;;;0.00;0.00;;;;;;;;;;5007081;28;20042;-94
2023/03/21 05:04:06;;;;;;;0.00;0.00;;;;;;;;;;4987608;28;20055;-93
2023/03/21 05:06:33;;;;;;;0.00;0.00;;;;;;;;;;5004760;28;20034;-94
2023/03/21 05:09:00;;;;;;;0.00;0.00;;;;;;;;;;5019919;28;20049;-92
2023/03/21 05:11:29;;;;;;;0.00;0.00;;;;;;;;;;5004165;28;20057;-95
2023/03/21 05:13:58;;;;;;;0.00;0.00;;;;;;;;;;5004727;28;20085;-93
2023/03/21 05:16:25;;;;;;;0.00;0.00;;;;;;;;;;5004558;28;20053;-95
2023/03/21 05:18:54;;;;;;;0.00;0.00;;;;;;;;;;5020946;28;20055;-92
2023/03/21 05:21:28;;;;;;;0.00;0.00;;;;;;;;;;5045146;28;20084;-96
2023/03/21 05:23:57;;;;;;;0.00;0.00;;;;;;;;;;5045904;28;20042;-94
2023/03/21 05:26:23;;;;;;;0.00;0.00;;;;;;;;;;5046155;28;20484;-93
2023/03/21 05:28:50;;;;;;;0.00;0.00;;;;;;;;;;5044238;28;20037;-94
2023/03/21 05:31:17;;;;;;;0.00;0.00;;;;;;;;;;5049589;28;20049;-94
2023/03/21 05:33:44;;;;;;;0.00;0.00;;;;;;;;;;5024107;28;20060;-92
2023/03/21 05:36:13;;;;;;;0.00;0.00;;;;;;;;;;5027213;28;20068;-93
2023/03/21 05:38:44;;;;;;;0.00;0.00;;;;;;;;;;5048435;28;20038;-94
2023/03/21 05:41:14;;;;;;;1.10;0.08;;;;;;;;;;5042444;28;20056;-91
2023/03/21 05:43:40;;;;;;;0.00;0.00;;;;;;;;;;5040663;28;20061;-93
2023/03/21 05:46:06;;;;;;;0.00;0.00;;;;;;;;;;5037512;28;20060;-94
2023/03/21 05:48:33;;;;;;;0.00;0.00;;;;;;;;;;5041592;28;20064;-94
2023/03/21 05:51:00;;;;;;;0.00;0.00;;;;;;;;;;5026367;28;20056;-93
2023/03/21 05:53:26;;;;;;;0.10;0.00;;;;;;;;;;5036386;28;20428;-96
2023/03/21 05:55:52;;;;;;;0.00;0.00;;;;;;;;;;5033270;28;20042;-92
2023/03/21 05:58:22;;;;;;;0.00;0.00;;;;;;;;;;5034398;28;20053;-93
2023/03/21 06:00:48;;;;;;;0.00;0.00;;;;;;;;;;5037281;28;20041;-94
2023/03/21 06:03:14;;;;;;;0.10;0.00;;;;;;;;;;5033288;28;20125;-92
2023/03/21 06:05:43;;;;;;;0.00;0.00;;;;;;;;;;5018344;28;20034;-94
2023/03/21 06:08:11;;;;;;;0.00;0.00;;;;;;;;;;5035385;28;20503;-94
2023/03/21 06:10:37;;;;;;;0.00;0.00;;;;;;;;;;5034641;28;20041;-93
2023/03/21 06:13:03;;;;;;;0.00;0.00;;;;;;;;;;5034448;28;20049;-93
2023/03/21 06:15:32;;;;;;;0.00;0.00;;;;;;;;;;5033462;28;20041;-94
2023/03/21 06:17:58;;;;;;;0.00;0.00;;;;;;;;;;5032580;28;20077;-93
2023/03/21 06:20:25;;;;;;;0.00;0.00;;;;;;;;;;5032765;28;20064;-94
2023/03/21 06:22:51;;;;;;;0.63;0.00;;;;;;;;;;5016167;28;20042;-95
2023/03/21 06:25:17;;;;;;;0.00;0.00;;;;;;;;;;5032605;28;20041;-93
2023/03/21 06:27:43;;;;;;;0.00;0.00;;;;;;;;;;5032273;28;20468;-92
2023/03/21 06:30:09;;;;;;;0.00;0.00;;;;;;;;;;5033675;28;20044;-91
2023/03/21 06:32:35;;;;;;;0.00;0.00;;;;;;;;;;5015723;28;20047;-92
2023/03/21 06:35:01;;;;;;;0.00;0.00;;;;;;;;;;5017172;28;20049;-92
2023/03/21 06:37:27;;;;;;;0.00;0.00;;;;;;;;;;5036417;28;20062;-92
2023/03/21 06:39:56;;;;;;;0.00;0.00;;;;;;;;;;5035652;28;20077;-91
2023/03/21 06:42:26;;;;;;;0.00;0.00;;;;;;;;;;5035449;28;20115;-93
2023/03/21 06:44:54;;;;;;;0.00;0.00;;;;;;;;;;5035821;28;20354;-92
2023/03/21 06:47:23;;;;;;;0.00;0.00;;;;;;;;;;5037456;28;20037;-94
2023/03/21 06:49:50;;;;;;;0.00;0.00;;;;;;;;;;5036866;28;20034;-94
2023/03/21 06:52:16;;;;;;;0.00;0.00;;;;;;;;;;5037092;28;20075;-92
2023/03/21 06:54:45;;;;;;;0.28;0.00;;;;;;;;;;5036748;28;20046;-94
2023/03/21 06:57:12;;;;;;;0.00;0.00;;;;;;;;;;5021561;28;20052;-92
2023/03/21 06:59:40;;;;;;;0.00;0.00;;;;;;;;;;5019346;28;20130;-94
2023/03/21 07:02:06;;;;;;;0.00;0.00;;;;;;;;;;5019505;28;20045;-95
2023/03/21 07:04:33;;;;;;;0.00;0.00;;;;;;;;;;5035626;28;20041;-92
2023/03/21 07:07:01;;;;;;;0.00;0.00;;;;;;;;;;5039164;28;20044;-94
2023/03/21 07:09:27;;;;;;;0.00;0.00;;;;;;;;;;5037367;28;20068;-95
2023/03/21 07:11:54;;;;;;;0.32;0.20;;;;;;;;;;5036280;28;20046;-94
2023/03/21 07:14:25;;;;;;;0.00;0.00;;;;;;;;;;5019300;28;20102;-95
2023/03/21 07:16:51;;;;;;;0.00;0.00;;;;;;;;;;5035968;28;20451;-94
2023/03/21 07:19:17;;;;;;;0.00;0.00;;;;;;;;;;5035970;28;20056;-91
2023/03/21 07:21:45;;;;;;;0.00;0.00;;;;;;;;;;5035831;28;20045;-92
2023/03/21 07:24:11;;;;;;;0.90;0.30;;;;;;;;;;5020992;28;20068;-93
2023/03/21 07:26:38;;;;;;;0.00;0.00;;;;;;;;;;5035163;28;20078;-95
2023/03/21 07:29:10;;;;;;;0.00;0.00;;;;;;;;;;5014532;28;20034;-96
2023/03/21 07:31:36;;;;;;;0.47;0.45;;;;;;;;;;5015303;28;20459;-91
2023/03/21 07:34:02;;;;;;;0.00;0.00;;;;;;;;;;4999193;28;20440;-92
2023/03/21 07:36:28;;;;;;;0.00;0.00;;;;;;;;;;4999499;28;20038;-92
2023/03/21 07:38:57;;;;;;;1.35;0.20;;;;;;;;;;5015723;28;20133;-92
2023/03/21 07:41:23;;;;;;;0.00;0.00;;;;;;;;;;5015197;28;20047;-91
2023/03/21 07:43:49;;;;;;;0.00;0.00;;;;;;;;;;4999830;28;20041;-94
2023/03/21 07:46:15;;;;;;;0.00;0.00;;;;;;;;;;4998920;28;20540;-90
2023/03/21 07:48:41;;;;;;;0.00;0.00;;;;;;;;;;5015415;28;20076;-94
2023/03/21 07:51:08;;;;;;;0.00;0.00;;;;;;;;;;5015958;28;20046;-92
2023/03/21 07:53:34;;;;;;;0.00;0.00;;;;;;;;;;5000519;28;20038;-93
2023/03/21 07:56:00;;;;;;;0.00;0.00;;;;;;;;;;5000925;28;20620;-93
2023/03/21 07:58:27;;;;;;;0.00;0.00;;;;;;;;;;4999944;28;20045;-93
2023/03/21 08:00:55;;;;;;;0.00;0.00;;;;;;;;;;5015787;28;20042;-93
2023/03/21 08:03:22;;;;;;;0.25;0.17;;;;;;;;;;4999686;28;20038;-89
2023/03/21 08:05:49;;;;;;;0.00;0.00;;;;;;;;;;5014510;28;20034;-93
2023/03/21 08:08:15;;;;;;;0.30;0.08;;;;;;;;;;4998469;28;20208;-93
2023/03/21 08:10:43;;;;;;;0.00;0.00;;;;;;;;;;5014534;28;20049;-92
2023/03/21 08:13:09;;;;;;;0.00;0.00;;;;;;;;;;4998444;28;20132;-91
2023/03/21 08:15:36;;;;;;;0.00;0.00;;;;;;;;;;5016498;28;20053;-91
2023/03/21 08:18:02;;;;;;;0.00;0.00;;;;;;;;;;5034114;28;20061;-92
2023/03/21 08:20:28;;;;;;;0.00;0.00;;;;;;;;;;5034303;28;20370;-91
2023/03/21 08:22:57;;;;;;;0.00;0.00;;;;;;;;;;5034043;28;20140;-91
2023/03/21 08:25:23;;;;;;;0.00;0.00;;;;;;;;;;5034546;28;20496;-91
2023/03/21 08:27:50;;;;;;;0.10;0.10;;;;;;;;;;5035196;28;20087;-91
2023/03/21 08:30:19;;;;;;;0.00;0.00;;;;;;;;;;5034839;28;20080;-92
2023/03/21 08:32:45;;;;;;;0.00;0.00;;;;;;;;;;5033248;28;20046;-93
2023/03/21 08:35:12;;;;;;;0.00;0.00;;;;;;;;;;5017265;28;20479;-91
2023/03/21 08:37:42;;;;;;;0.00;0.00;;;;;;;;;;5034963;28;20468;-93
2023/03/21 08:40:12;;;;;;;0.00;0.00;;;;;;;;;;5033910;28;20511;-91
2023/03/21 08:42:40;;;;;;;0.00;0.00;;;;;;;;;;5017169;28;20038;-91
2023/03/21 08:45:07;;;;;;;0.00;0.00;;;;;;;;;;5033433;28;20077;-91
2023/03/21 08:47:33;;;;;;;0.00;0.00;;;;;;;;;;5032918;28;20046;-91
2023/03/21 08:49:59;;;;;;;0.00;0.00;;;;;;;;;;5033483;28;20060;-92
2023/03/21 08:52:26;;;;;;;0.00;0.00;;;;;;;;;;5021090;28;20513;-92
2023/03/21 08:54:52;;;;;;;0.00;0.00;;;;;;;;;;4997307;28;20046;-93
2023/03/21 08:57:19;;;;;;;0.35;0.10;;;;;;;;;;5013632;28;20065;-93
2023/03/21 08:59:45;;;;;;;0.00;0.00;;;;;;;;;;5013059;28;20060;-90
2023/03/21 09:02:15;;;;;;;0.00;0.00;;;;;;;;;;4997373;28;20054;-93
2023/03/21 09:04:42;;;;;;;0.00;0.00;;;;;;;;;;5013234;28;20120;-93
2023/03/21 09:07:10;;;;;;;0.00;0.00;;;;;;;;;;5014240;28;20092;-92
2023/03/21 09:09:36;;;;;;;0.00;0.00;;;;;;;;;;5013578;28;20128;-93
2023/03/21 09:12:02;;;;;;;0.00;0.00;;;;;;;;;;5013428;28;20081;-93
2023/03/21 09:14:28;;;;;;;0.40;0.08;;;;;;;;;;5012931;28;20046;-93
2023/03/21 09:16:54;;;;;;;0.00;0.00;;;;;;;;;;5012980;28;20140;-90
2023/03/21 09:19:23;;;;;;;0.17;0.00;;;;;;;;;;5018230;28;20106;-92
2023/03/21 09:21:54;;;;;;;0.00;0.00;;;;;;;;;;5021988;28;20116;-92
2023/03/21 09:24:23;;;;;;;0.00;0.00;;;;;;;;;;5001443;28;20485;-92
2023/03/21 09:26:50;;;;;;;0.00;0.00;;;;;;;;;;5013011;28;20037;-93
2023/03/21 09:29:18;;;;;;;0.00;0.00;;;;;;;;;;5013153;28;20054;-92
2023/03/21 09:31:45;;;;;;;0.00;0.00;;;;;;;;;;5012433;28;20045;-90
2023/03/21 09:34:14;;;;;;;0.80;0.43;;;;;;;;;;4996676;28;20085;-94
2023/03/21 09:36:43;;;;;;;0.10;0.00;;;;;;;;;;4996582;28;20046;-93
2023/03/21 09:39:10;;;;;;;0.00;0.00;;;;;;;;;;5014390;28;20053;-94
2023/03/21 09:41:39;;;;;;;0.00;0.00;;;;;;;;;;5014978;28;20048;-93
2023/03/21 09:44:11;;;;;;;0.00;0.00;;;;;;;;;;4997005;28;20074;-93
2023/03/21 09:46:48;;;;;;;0.10;0.00;;;;;;;;;;4996402;28;20038;-92
2023/03/21 09:49:29;;;;;;;0.00;0.00;;;;;;;;;;5013339;28;20033;-93
2023/03/21 09:51:57;;;;;;;0.00;0.00;;;;;;;;;;5013585;28;20049;-94
2023/03/21 09:54:37;;;;;;;0.00;0.00;;;;;;;;;;5013426;28;20034;-92
2023/03/21 09:57:13;;;;;;;0.00;0.00;;;;;;;;;;5013204;28;20223;-91
2023/03/21 09:59:40;;;;;;;0.00;0.00;;;;;;;;;;5013017;28;20057;-93
2023/03/21 10:02:31;;;;;;;0.00;0.00;;;;;;;;;;5012117;28;20104;-93
2023/03/21 10:04:59;;;;;;;0.00;0.00;;;;;;;;;;4998695;28;20516;-93
2023/03/21 10:07:29;;;;;;;0.00;0.00;;;;;;;;;;5012294;28;20045;-93
2023/03/21 10:09:56;;;;;;;0.00;0.00;;;;;;;;;;5014184;28;20096;-92
2023/03/21 10:12:29;;;;;;;0.00;0.00;;;;;;;;;;5000339;28;20393;-92
2023/03/21 10:14:56;;;;;;;0.63;0.30;;;;;;;;;;5001202;28;20049;-92
2023/03/21 10:17:29;;;;;;;0.20;0.00;;;;;;;;;;5016516;28;20061;-94
2023/03/21 10:20:16;;;;;;;0.00;0.00;;;;;;;;;;5001077;28;20042;-91
2023/03/21 10:22:42;;;;;;;0.00;0.00;;;;;;;;;;5029492;28;20041;-91
2023/03/21 10:25:12;;;;;;;0.00;0.00;;;;;;;;;;5030112;28;20128;-91
2023/03/21 10:27:38;;;;;;;0.00;0.00;;;;;;;;;;5029575;28;20042;-91
2023/03/21 10:30:06;;;;;;;0.00;0.00;;;;;;;;;;5029056;28;20102;-90
2023/03/21 10:32:32;;;;;;;0.00;0.00;;;;;;;;;;5013387;28;20049;-89
2023/03/21 10:34:59;;;;;;;0.00;0.00;;;;;;;;;;5031340;28;20038;-90
2023/03/21 10:37:25;;;;;;;0.00;0.00;;;;;;;;;;5029558;28;20045;-90
2023/03/21 10:39:52;;;;;;;0.00;0.00;;;;;;;;;;5029860;28;20041;-91
2023/03/21 10:42:20;;;;;;;0.15;0.15;;;;;;;;;;5013829;28;20133;-90
2023/03/21 10:44:48;;;;;;;0.00;0.00;;;;;;;;;;5028326;28;20128;-91
2023/03/21 10:47:18;;;;;;;2.22;0.20;;;;;;;;;;5026572;28;20042;-90
2023/03/21 10:49:46;;;;;;;0.10;0.08;;;;;;;;;;5028787;28;20500;-91
2023/03/21 10:52:13;;;;;;;0.00;0.00;;;;;;;;;;5012721;28;20057;-90
2023/03/21 10:54:39;;;;;;;0.00;0.00;;;;;;;;;;5004593;28;20490;-95
2023/03/21 10:57:08;;;;;;;0.00;0.00;;;;;;;;;;5016414;28;20481;-94
2023/03/21 10:59:36;;;;;;;0.00;0.00;;;;;;;;;;5016221;28;20061;-92
2023/03/21 11:02:04;;;;;;;0.00;0.00;;;;;;;;;;5016478;28;20449;-93
2023/03/21 11:04:30;;;;;;;0.00;0.00;;;;;;;;;;5015783;28;20488;-92
2023/03/21 11:07:01;;;;;;;0.00;0.00;;;;;;;;;;5015260;28;20042;-92
2023/03/21 11:09:43;;;;;;;0.70;0.10;;;;;;;;;;5015324;28;20181;-92
2023/03/21 11:12:12;;;;;;;0.00;0.00;;;;;;;;;;5016738;28;20402;-91
2023/03/21 11:14:39;;;;;;;0.00;0.00;;;;;;;;;;5015641;28;20046;-92
2023/03/21 11:17:17;;;;;;;0.00;0.00;;;;;;;;;;5015928;28;20041;-90
2023/03/21 11:19:48;;;;;;;0.00;0.00;;;;;;;;;;5015210;28;20486;-92
2023/03/21 11:22:14;;;;;;;0.00;0.00;;;;;;;;;;5013806;28;20054;-91
2023/03/21 11:24:41;;;;;;;0.00;0.00;;;;;;;;;;5014641;28;20417;-91
2023/03/21 11:27:08;;;;;;;0.00;0.00;;;;;;;;;;5015875;28;20038;-90
2023/03/21 11:29:39;;;;;;;0.13;0.00;;;;;;;;;;5014359;28;20042;-91
2023/03/21 11:32:28;;;;;;;0.00;0.00;;;;;;;;;;5014691;28;20050;-90
2023/03/21 11:35:08;;;;;;;0.00;0.00;;;;;;;;;;5005616;28;20053;-92
2023/03/21 11:37:37;;;;;;;0.00;0.00;;;;;;;;;;5014953;28;20123;-91
2023/03/21 11:40:12;;;;;;;0.00;0.00;;;;;;;;;;5014619;28;20049;-91
2023/03/21 11:42:46;;;;;;;0.40;0.15;;;;;;;;;;5014101;28;20437;-90
2023/03/21 11:45:17;;;;;;;0.00;0.00;;;;;;;;;;5014327;28;20084;-91
2023/03/21 11:47:44;;;;;;;0.17;0.13;;;;;;;;;;4998294;28;20096;-92
2023/03/21 11:50:24;;;;;;;0.00;0.00;;;;;;;;;;5015107;28;20052;-93
2023/03/21 11:52:54;;;;;;;0.00;0.00;;;;;;;;;;5013820;28;20505;-89
2023/03/21 11:55:24;;;;;;;0.00;0.00;;;;;;;;;;5014071;28;20172;-90
2023/03/21 11:58:09;;;;;;;0.00;0.00;;;;;;;;;;5015924;28;20034;-91
2023/03/21 12:01:02;;;;;;;0.00;0.00;;;;;;;;;;5013924;28;20045;-90
2023/03/21 12:03:36;;;;;;;0.00;0.00;;;;;;;;;;4961347;28;20555;-89
2023/03/21 12:06:13;;;;;;;0.00;0.00;;;;;;;;;;5014832;28;20374;-89
2023/03/21 12:08:39;;;;;;;0.00;0.00;;;;;;;;;;5013982;28;20493;-90
2023/03/21 12:11:11;;;;;;;0.00;0.00;;;;;;;;;;5013657;28;20096;-89
2023/03/21 12:13:56;;;;;;;0.05;0.05;;;;;;;;;;5013590;28;20057;-89
2023/03/21 12:16:47;;;;;;;0.00;0.00;;;;;;;;;;5015336;28;20060;-91
2023/03/21 12:19:20;;;;;;;0.00;0.00;;;;;;;;;;4981571;28;20054;-91
2023/03/21 12:21:58;;;;;;;0.00;0.00;;;;;;;;;;5014827;28;20048;-90
2023/03/21 12:24:26;;;;;;;0.00;0.00;;;;;;;;;;5013508;28;20100;-89
2023/03/21 12:27:24;;;;;;;0.10;0.08;;;;;;;;;;5013582;28;20548;-89
2023/03/21 12:29:57;;;;;;;0.10;0.10;;;;;;;;;;4960594;28;20046;-88
2023/03/21 12:32:41;;;;;;;0.00;0.00;;;;;;;;;;5013445;28;20046;-88
2023/03/21 12:35:24;;;;;;;0.00;0.00;;;;;;;;;;5015963;28;20078;-93
2023/03/21 12:38:15;;;;;;;0.00;0.00;;;;;;;;;;4997485;28;20468;-89
2023/03/21 12:40:44;;;;;;;0.00;0.00;;;;;;;;;;5014680;28;20042;-90
2023/03/21 12:43:24;;;;;;;0.00;0.00;;;;;;;;;;4996839;28;20397;-91
2023/03/21 12:45:55;;;;;;;0.00;0.00;;;;;;;;;;5013142;28;20417;-89
2023/03/21 12:48:27;;;;;;;0.47;0.32;;;;;;;;;;4996789;28;20038;-92
2023/03/21 12:50:56;;;;;;;0.00;0.00;;;;;;;;;;5013185;28;20046;-90
2023/03/21 12:53:38;;;;;;;0.22;0.00;;;;;;;;;;4997426;28;20057;-92
2023/03/21 12:56:07;;;;;;;0.00;0.00;;;;;;;;;;5013482;28;20370;-92
2023/03/21 12:58:39;;;;;;;0.00;0.00;;;;;;;;;;4980943;28;20042;-90
2023/03/21 13:01:07;;;;;;;0.00;0.00;;;;;;;;;;4996928;28;20398;-91
2023/03/21 13:03:37;;;;;;;0.00;0.00;;;;;;;;;;5012993;28;20052;-91
2023/03/21 13:06:04;;;;;;;0.00;0.00;;;;;;;;;;5013552;28;20040;-91
2023/03/21 13:08:33;;;;;;;0.15;0.15;;;;;;;;;;5012907;28;20042;-90
2023/03/21 13:11:00;;;;;;;0.30;0.00;;;;;;;;;;4996603;28;20081;-89
2023/03/21 13:13:35;;;;;;;0.00;0.00;;;;;;;;;;5012436;28;20057;-90
2023/03/21 13:16:14;;;;;;;0.00;0.00;;;;;;;;;;5012745;28;20053;-91
2023/03/21 13:18:50;;;;;;;0.00;0.00;;;;;;;;;;5012262;28;20494;-90
2023/03/21 13:21:25;;;;;;;0.00;0.00;;;;;;;;;;5012224;28;20050;-90
2023/03/21 13:24:14;;;;;;;0.45;0.45;;;;;;;;;;5013647;28;20045;-93
2023/03/21 13:26:41;;;;;;;0.00;0.00;;;;;;;;;;4983784;28;20124;-90
2023/03/21 13:29:14;;;;;;;0.00;0.00;;;;;;;;;;5012234;28;20046;-90
2023/03/21 13:31:44;;;;;;;0.00;0.00;;;;;;;;;;5012101;28;20092;-90
2023/03/21 13:34:10;;;;;;;0.00;0.00;;;;;;;;;;5012668;28;20041;-90
2023/03/21 13:36:38;;;;;;;0.00;0.00;;;;;;;;;;5012125;28;20086;-89
2023/03/21 13:39:05;;;;;;;0.60;0.00;;;;;;;;;;5011928;28;20050;-89
2023/03/21 13:41:37;;;;;;;0.00;0.00;;;;;;;;;;4995322;28;20050;-89
2023/03/21 13:44:03;;;;;;;0.00;0.00;;;;;;;;;;5011824;28;20414;-90
2023/03/21 13:46:29;;;;;;;0.00;0.00;;;;;;;;;;4995875;28;20034;-89
2023/03/21 13:48:59;;;;;;;0.00;0.00;;;;;;;;;;5012059;28;20072;-89
2023/03/21 13:51:28;;;;;;;0.00;0.00;;;;;;;;;;5012233;28;20092;-90
2023/03/21 13:54:07;;;;;;;0.00;0.00;;;;;;;;;;5013281;28;20048;-90
2023/03/21 13:56:51;;;;;;;0.00;0.00;;;;;;;;;;5012449;28;20073;-90
2023/03/21 13:59:18;;;;;;;0.20;0.10;;;;;;;;;;5011908;28;20041;-91
2023/03/21 14:02:02;;;;;;;0.00;0.00;;;;;;;;;;5011699;28;20520;-91
2023/03/21 14:04:30;;;;;;;0.00;0.00;;;;;;;;;;4995872;28;20433;-91
2023/03/21 14:06:58;;;;;;;0.00;0.00;;;;;;;;;;5012114;28;20045;-90
2023/03/21 14:09:35;;;;;;;0.00;0.00;;;;;;;;;;5012061;28;20046;-89
2023/03/21 14:12:02;;;;;;;0.00;0.00;;;;;;;;;;5013148;28;20485;-90
2023/03/21 14:14:37;;;;;;;0.00;0.00;;;;;;;;;;5012045;28;20056;-91
2023/03/21 14:17:11;;;;;;;0.00;0.00;;;;;;;;;;5012309;28;20485;-91
2023/03/21 14:19:37;;;;;;;0.00;0.00;;;;;;;;;;5012089;28;20056;-92
2023/03/21 14:22:03;;;;;;;0.00;0.00;;;;;;;;;;5012061;28;20521;-91
2023/03/21 14:24:29;;;;;;;0.00;0.00;;;;;;;;;;4995439;28;20050;-91
2023/03/21 14:26:55;;;;;;;0.00;0.00;;;;;;;;;;5012298;28;20038;-89
2023/03/21 14:29:26;;;;;;;0.10;0.00;;;;;;;;;;5012230;28;20038;-91
2023/03/21 14:31:55;;;;;;;0.00;0.00;;;;;;;;;;5012663;28;20049;-91
2023/03/21 14:34:22;;;;;;;0.00;0.00;;;;;;;;;;5012509;28;20050;-92
2023/03/21 14:36:48;;;;;;;0.00;0.00;;;;;;;;;;5012107;28;20038;-92
2023/03/21 14:39:20;;;;;;;0.63;0.47;;;;;;;;;;5011590;28;20520;-91
2023/03/21 14:41:47;;;;;;;0.00;0.00;;;;;;;;;;5011918;28;20147;-91
2023/03/21 14:44:13;;;;;;;0.00;0.00;;;;;;;;;;5012294;28;20041;-92
2023/03/21 14:46:40;;;;;;;0.00;0.00;;;;;;;;;;5012083;28;20036;-92
2023/03/21 14:49:25;;;;;;;0.00;0.00;;;;;;;;;;5011872;28;20421;-91
2023/03/21 14:51:52;;;;;;;0.00;0.00;;;;;;;;;;4995703;28;20050;-91
2023/03/21 14:54:19;;;;;;;0.00;0.00;;;;;;;;;;5012912;28;20044;-93
2023/03/21 14:56:46;;;;;;;0.00;0.00;;;;;;;;;;5012626;28;20133;-91
2023/03/21 14:59:14;;;;;;;0.00;0.00;;;;;;;;;;4998777;28;20046;-90
2023/03/21 15:01:41;;;;;;;0.20;0.17;;;;;;;;;;5014934;28;20049;-93
2023/03/21 15:04:07;;;;;;;0.00;0.00;;;;;;;;;;5015362;28;20045;-91
2023/03/21 15:06:34;;;;;;;0.00;0.00;;;;;;;;;;5014582;28;20080;-91
2023/03/21 15:09:02;;;;;;;0.00;0.00;;;;;;;;;;5016297;28;20046;-90
2023/03/21 15:11:29;;;;;;;0.00;0.00;;;;;;;;;;5014627;28;20050;-91
2023/03/21 15:13:55;;;;;;;0.00;0.00;;;;;;;;;;5014573;28;20045;-92
2023/03/21 15:16:22;;;;;;;0.03;0.00;;;;;;;;;;4998208;28;20054;-90